Time;durP1;ratioP1;P1;durP2;ratioP2;P2;SDS_P1;SDS_P2;PMS_P1;PMS_P2;Temp;Humidity;BMP_temperature;BMP_pressure;BME280_temperature;BME280_humidity;BME280_pressure;Samples;Min_cycle;Max_cycle;Signal;HPM_P1;HPM_P2
2023/09/24 00:01:04;;;;;;;15.70;8.65;;;9.10;99.90;;;;;;5099529;28;20176;-92
2023/09/24 00:03:31;;;;;;;10.87;8.10;;;9.10;99.90;;;;;;5066248;28;20207;-92
2023/09/24 00:05:59;;;;;;;16.55;8.85;;;9.10;99.90;;;;;;5083066;28;20184;-92
2023/09/24 00:08:24;;;;;;;10.70;8.73;;;9.10;99.90;;;;;;5081680;28;20301;-92
2023/09/24 00:10:52;;;;;;;11.80;7.80;;;9.00;99.90;;;;;;5080418;28;20243;-92
2023/09/24 00:13:19;;;;;;;9.65;7.82;;;9.00;99.90;;;;;;5080346;28;20180;-91
2023/09/24 00:15:45;;;;;;;9.05;7.00;;;9.00;99.90;;;;;;5079892;28;20194;-92
2023/09/24 00:18:11;;;;;;;19.93;6.10;;;9.00;99.90;;;;;;5080323;28;20695;-92
2023/09/24 00:20:36;;;;;;;8.17;6.20;;;9.00;99.90;;;;;;5079798;28;20448;-91
2023/09/24 00:23:03;;;;;;;9.97;6.17;;;8.90;99.90;;;;;;5026097;28;1089404;-92
2023/09/24 00:25:28;;;;;;;10.65;5.40;;;8.90;99.90;;;;;;5083447;28;20228;-92
2023/09/24 00:27:56;;;;;;;7.33;4.97;;;8.90;99.90;;;;;;5072587;28;20194;-92
2023/09/24 00:30:22;;;;;;;6.10;5.10;;;8.80;99.90;;;;;;5088493;28;20190;-92
2023/09/24 00:32:48;;;;;;;13.90;4.45;;;8.70;99.90;;;;;;5065266;28;20212;-92
2023/09/24 00:35:14;;;;;;;6.10;4.80;;;8.70;99.90;;;;;;5065403;28;20196;-92
2023/09/24 00:37:42;;;;;;;8.00;5.30;;;8.60;99.90;;;;;;5081971;28;20180;-92
2023/09/24 00:40:10;;;;;;;7.68;5.18;;;8.60;99.90;;;;;;5099374;28;20188;-92
2023/09/24 00:42:36;;;;;;;10.00;4.50;;;8.70;99.90;;;;;;5065263;28;20184;-92
2023/09/24 00:45:06;;;;;;;7.95;5.18;;;8.60;99.90;;;;;;5082356;28;20355;-92
2023/09/24 00:47:32;;;;;;;6.18;4.63;;;8.60;99.90;;;;;;5082346;28;20549;-92
2023/09/24 00:49:59;;;;;;;11.40;4.90;;;8.50;99.90;;;;;;5082281;28;20179;-92
2023/09/24 00:52:25;;;;;;;9.02;4.15;;;8.50;99.90;;;;;;5081795;28;20434;-92
2023/09/24 00:54:52;;;;;;;7.15;4.72;;;8.50;99.90;;;;;;5080371;28;20191;-91
2023/09/24 00:57:18;;;;;;;7.15;4.45;;;8.50;99.90;;;;;;5099711;28;20626;-91
2023/09/24 00:59:46;;;;;;;10.07;3.90;;;8.50;99.90;;;;;;5101173;28;20187;-91
2023/09/24 01:02:13;;;;;;;6.88;3.78;;;8.40;99.90;;;;;;5101570;28;20282;-91
2023/09/24 01:04:39;;;;;;;12.57;4.63;;;8.40;99.90;;;;;;5118602;28;20236;-90
2023/09/24 01:07:05;;;;;;;6.50;4.10;;;8.40;99.90;;;;;;5101445;28;20182;-92
2023/09/24 01:09:31;;;;;;;8.13;4.60;;;8.40;99.90;;;;;;5121082;28;20254;-92
2023/09/24 01:11:57;;;;;;;5.07;4.50;;;8.30;99.90;;;;;;5103969;28;20179;-92
2023/09/24 01:14:25;;;;;;;8.13;5.00;;;8.30;99.90;;;;;;5102430;28;20181;-92
2023/09/24 01:16:50;;;;;;;5.50;4.20;;;8.30;99.90;;;;;;5082064;28;20648;-92
2023/09/24 01:19:16;;;;;;;5.03;3.77;;;8.30;99.90;;;;;;5081934;28;20176;-92
2023/09/24 01:21:43;;;;;;;10.23;4.20;;;8.30;99.90;;;;;;5098808;28;20177;-91
2023/09/24 01:24:08;;;;;;;6.63;3.35;;;8.20;99.90;;;;;;5081430;28;20247;-92
2023/09/24 01:26:35;;;;;;;5.60;3.67;;;8.20;99.90;;;;;;5098463;28;20168;-92
2023/09/24 01:29:02;;;;;;;6.30;3.70;;;8.20;99.90;;;;;;5099005;28;20172;-92
2023/09/24 01:31:28;;;;;;;4.35;3.70;;;8.20;99.90;;;;;;5080973;28;20204;-93
2023/09/24 01:33:53;;;;;;;7.73;4.03;;;8.10;99.90;;;;;;5080230;28;20199;-92
2023/09/24 01:36:20;;;;;;;8.70;3.80;;;8.10;99.90;;;;;;5079637;28;20176;-92
2023/09/24 01:38:47;;;;;;;14.70;3.97;;;8.10;99.90;;;;;;5079410;28;20224;-92
2023/09/24 01:41:13;;;;;;;5.60;3.42;;;8.10;99.90;;;;;;5079422;28;20172;-92
2023/09/24 01:43:46;;;;;;;4.30;3.63;;;8.10;99.90;;;;;;5079635;28;20199;-91
2023/09/24 01:46:15;;;;;;;7.38;3.50;;;8.00;99.90;;;;;;5063606;28;20243;-92
2023/09/24 01:48:42;;;;;;;8.15;4.20;;;8.00;99.90;;;;;;5079000;28;20180;-92
2023/09/24 01:51:10;;;;;;;5.50;3.55;;;8.00;99.90;;;;;;5079370;28;20600;-91
2023/09/24 01:53:38;;;;;;;8.48;3.90;;;8.00;99.90;;;;;;5079716;28;20186;-91
2023/09/24 01:56:07;;;;;;;7.40;4.75;;;8.00;99.90;;;;;;5079403;28;20794;-92
2023/09/24 01:58:33;;;;;;;4.78;3.50;;;8.00;99.90;;;;;;5097856;28;20172;-91
2023/09/24 02:00:59;;;;;;;4.30;3.37;;;7.90;99.90;;;;;;5097502;28;20210;-90
2023/09/24 02:03:28;;;;;;;10.07;3.80;;;7.90;99.90;;;;;;5080261;28;20572;-91
2023/09/24 02:05:57;;;;;;;4.45;3.60;;;7.90;99.90;;;;;;5078608;28;20223;-91
2023/09/24 02:08:23;;;;;;;7.57;3.25;;;7.90;99.90;;;;;;5079174;28;20195;-92
2023/09/24 02:10:48;;;;;;;9.67;3.90;;;7.90;99.90;;;;;;5078432;28;20555;-92
2023/09/24 02:13:15;;;;;;;6.37;3.60;;;7.80;99.90;;;;;;5061938;28;20185;-91
2023/09/24 02:15:46;;;;;;;6.93;3.35;;;7.80;99.90;;;;;;5096325;28;20172;-92
2023/09/24 02:18:11;;;;;;;11.30;4.10;;;7.80;99.90;;;;;;5078791;28;20198;-91
2023/09/24 02:20:41;;;;;;;3.77;2.53;;;7.80;99.90;;;;;;5078229;28;20179;-91
2023/09/24 02:23:07;;;;;;;4.90;3.45;;;7.70;99.90;;;;;;5078219;28;20228;-91
2023/09/24 02:25:37;;;;;;;5.73;3.63;;;7.70;99.90;;;;;;5077662;28;20215;-92
2023/09/24 02:28:07;;;;;;;5.53;3.50;;;7.70;99.90;;;;;;5078041;28;20497;-92
2023/09/24 02:30:34;;;;;;;5.30;3.60;;;7.70;99.90;;;;;;5077737;28;20180;-92
2023/09/24 02:33:02;;;;;;;6.80;3.75;;;7.60;99.90;;;;;;5078347;28;20203;-92
2023/09/24 02:35:28;;;;;;;6.30;3.40;;;7.60;99.90;;;;;;5078422;28;20519;-92
2023/09/24 02:37:54;;;;;;;9.77;3.70;;;7.70;99.90;;;;;;5079317;28;20237;-92
2023/09/24 02:40:23;;;;;;;7.25;2.92;;;7.60;99.90;;;;;;5085827;28;20172;-92
2023/09/24 02:42:53;;;;;;;6.28;3.15;;;7.60;99.90;;;;;;5084795;28;20191;-91
2023/09/24 02:45:19;;;;;;;5.85;3.30;;;7.60;99.90;;;;;;5078803;28;20210;-92
2023/09/24 02:47:47;;;;;;;3.63;3.13;;;7.60;99.90;;;;;;5080799;28;20247;-91
2023/09/24 02:50:13;;;;;;;5.97;2.80;;;7.60;99.90;;;;;;5099514;28;20168;-92
2023/09/24 02:52:44;;;;;;;7.40;3.57;;;7.60;99.90;;;;;;5077759;28;20186;-91
2023/09/24 02:55:12;;;;;;;5.40;3.33;;;7.60;99.90;;;;;;5096410;28;20191;-91
2023/09/24 02:57:38;;;;;;;8.07;3.67;;;7.60;99.90;;;;;;5078048;28;20187;-92
2023/09/24 03:00:18;;;;;;;5.93;3.07;;;7.60;99.90;;;;;;5078822;28;20180;-91
2023/09/24 03:02:44;;;;;;;4.97;3.03;;;7.70;99.90;;;;;;5097242;28;20475;-91
2023/09/24 03:05:12;;;;;;;7.47;3.13;;;7.70;99.90;;;;;;5097077;28;20294;-90
2023/09/24 03:07:43;;;;;;;5.43;2.97;;;7.60;99.90;;;;;;5078277;28;20187;-91
2023/09/24 03:10:09;;;;;;;5.38;3.30;;;7.50;99.90;;;;;;5078678;28;20172;-91
2023/09/24 03:12:34;;;;;;;5.63;3.00;;;7.50;99.90;;;;;;5078785;28;20187;-91
2023/09/24 03:15:01;;;;;;;6.83;3.80;;;7.50;99.90;;;;;;5078087;28;20540;-91
2023/09/24 03:17:27;;;;;;;5.25;2.67;;;7.50;99.90;;;;;;5078794;28;20417;-90
2023/09/24 03:19:53;;;;;;;7.28;3.70;;;7.50;99.90;;;;;;5077981;28;20187;-91
2023/09/24 03:22:21;;;;;;;6.07;3.20;;;7.50;99.90;;;;;;5079277;28;20585;-91
2023/09/24 03:24:47;;;;;;;6.22;2.65;;;7.40;99.90;;;;;;5081752;28;20213;-91
2023/09/24 03:27:15;;;;;;;6.00;2.90;;;7.50;99.90;;;;;;5082362;28;20184;-91
2023/09/24 03:29:42;;;;;;;4.35;2.92;;;7.50;99.90;;;;;;5099856;28;20211;-92
2023/09/24 03:32:07;;;;;;;7.03;2.78;;;7.50;99.90;;;;;;5100393;28;20207;-92
2023/09/24 03:34:34;;;;;;;3.90;2.50;;;7.50;99.90;;;;;;5082146;28;20180;-92
2023/09/24 03:37:00;;;;;;;3.67;2.63;;;7.50;99.90;;;;;;5081344;28;20280;-92
2023/09/24 03:39:25;;;;;;;4.10;3.10;;;7.50;99.90;;;;;;5081668;28;20215;-92
2023/09/24 03:41:51;;;;;;;7.20;2.77;;;7.50;99.90;;;;;;5081237;28;20180;-91
2023/09/24 03:44:17;;;;;;;10.40;3.23;;;7.40;99.90;;;;;;5082475;28;20568;-91
2023/09/24 03:46:42;;;;;;;5.00;3.53;;;7.40;99.90;;;;;;5083166;28;20184;-91
2023/09/24 03:49:08;;;;;;;6.23;3.13;;;7.40;99.90;;;;;;5065919;28;20183;-90
2023/09/24 03:51:33;;;;;;;8.90;3.20;;;7.40;99.90;;;;;;5080977;28;20184;-90
2023/09/24 03:53:59;;;;;;;8.27;3.57;;;7.30;99.90;;;;;;5080608;28;20183;-89
2023/09/24 03:56:25;;;;;;;3.30;3.00;;;7.30;99.90;;;;;;5051631;28;20185;-90
2023/09/24 03:58:50;;;;;;;4.83;3.10;;;7.30;99.90;;;;;;5080425;28;20191;-90
2023/09/24 04:01:17;;;;;;;5.80;2.97;;;7.30;99.90;;;;;;5080677;28;20211;-89
2023/09/24 04:03:43;;;;;;;7.07;3.63;;;7.30;99.90;;;;;;5098048;28;20176;-89
2023/09/24 04:06:10;;;;;;;7.47;3.70;;;7.30;99.90;;;;;;5098731;28;20639;-90
2023/09/24 04:08:36;;;;;;;7.78;3.20;;;7.30;99.90;;;;;;5080537;28;20460;-89
2023/09/24 04:11:06;;;;;;;4.10;3.27;;;7.30;99.90;;;;;;5097888;28;20172;-89
2023/09/24 04:13:32;;;;;;;5.75;3.45;;;7.30;99.90;;;;;;5098392;28;20164;-89
2023/09/24 04:16:08;;;;;;;13.60;4.13;;;7.30;99.90;;;;;;5080282;28;20208;-89
2023/09/24 04:18:35;;;;;;;4.35;2.75;;;7.30;99.90;;;;;;5098669;28;20168;-89
2023/09/24 04:21:01;;;;;;;9.15;3.00;;;7.20;99.90;;;;;;5062527;28;20230;-89
2023/09/24 04:23:27;;;;;;;3.58;2.53;;;7.10;99.90;;;;;;5081189;28;20311;-90
2023/09/24 04:25:54;;;;;;;5.32;3.00;;;7.10;99.90;;;;;;5060543;28;20219;-90
2023/09/24 04:28:20;;;;;;;11.27;3.00;;;7.10;99.90;;;;;;5075242;28;20183;-89
2023/09/24 04:30:46;;;;;;;11.27;3.10;;;7.10;99.90;;;;;;5079838;28;20180;-89
2023/09/24 04:33:12;;;;;;;10.23;3.30;;;7.10;99.90;;;;;;5079288;28;20184;-89
2023/09/24 04:35:38;;;;;;;6.22;3.33;;;7.00;99.90;;;;;;5080158;28;20425;-89
2023/09/24 04:38:06;;;;;;;6.65;3.75;;;7.00;99.90;;;;;;5080070;28;20187;-89
2023/09/24 04:40:33;;;;;;;4.43;4.03;;;7.00;99.90;;;;;;5080286;28;20184;-89
2023/09/24 04:42:59;;;;;;;3.78;3.00;;;7.00;99.90;;;;;;5064470;28;20188;-89
2023/09/24 04:45:25;;;;;;;5.53;3.50;;;7.00;99.90;;;;;;5099718;28;20216;-89
2023/09/24 04:47:51;;;;;;;6.70;3.70;;;7.00;99.90;;;;;;5100797;28;20406;-89
2023/09/24 04:50:17;;;;;;;6.70;2.93;;;7.00;99.90;;;;;;5082402;28;20188;-89
2023/09/24 04:52:45;;;;;;;5.50;3.17;;;7.00;99.90;;;;;;5090342;28;20180;-88
2023/09/24 04:55:11;;;;;;;5.57;3.63;;;7.00;99.90;;;;;;5067611;28;20189;-90
2023/09/24 04:57:37;;;;;;;5.53;3.70;;;7.10;99.90;;;;;;5079694;28;20182;-89
2023/09/24 05:00:04;;;;;;;3.43;2.97;;;7.10;99.90;;;;;;5079091;28;20172;-89
2023/09/24 05:02:29;;;;;;;7.68;3.45;;;7.10;99.90;;;;;;5062496;28;20440;-89
2023/09/24 05:04:55;;;;;;;5.90;3.40;;;7.00;99.90;;;;;;5078829;28;20246;-89
2023/09/24 05:07:20;;;;;;;5.77;3.00;;;6.90;99.90;;;;;;5062382;28;20214;-89
2023/09/24 05:09:46;;;;;;;8.00;2.90;;;6.90;99.90;;;;;;5078667;28;20184;-89
2023/09/24 05:12:12;;;;;;;4.57;3.10;;;6.90;99.90;;;;;;5061895;28;20203;-89
2023/09/24 05:14:39;;;;;;;6.32;3.20;;;6.90;99.90;;;;;;5079042;28;20561;-89
2023/09/24 05:17:04;;;;;;;4.75;3.15;;;6.90;99.90;;;;;;5068439;28;20185;-89
2023/09/24 05:19:31;;;;;;;4.53;3.00;;;6.80;99.90;;;;;;5059021;28;20191;-89
2023/09/24 05:21:57;;;;;;;8.38;3.55;;;6.80;99.90;;;;;;5058801;28;20484;-89
2023/09/24 05:24:22;;;;;;;7.83;3.30;;;6.80;99.90;;;;;;5067232;28;20630;-89
2023/09/24 05:26:48;;;;;;;7.33;3.80;;;6.90;99.90;;;;;;5058253;28;20169;-89
2023/09/24 05:29:13;;;;;;;3.30;3.00;;;6.90;99.90;;;;;;5041582;28;20644;-89
2023/09/24 05:31:39;;;;;;;7.60;3.20;;;6.90;99.90;;;;;;5041557;28;20185;-89
2023/09/24 05:34:05;;;;;;;6.13;3.30;;;6.90;99.90;;;;;;5024917;28;20187;-89
2023/09/24 05:36:31;;;;;;;4.80;3.55;;;7.00;99.90;;;;;;5079690;28;20621;-89
2023/09/24 05:38:58;;;;;;;4.13;3.40;;;7.00;99.90;;;;;;5077836;28;20204;-88
2023/09/24 05:41:27;;;;;;;4.45;3.00;;;7.00;99.90;;;;;;5077536;28;20414;-88
2023/09/24 05:43:54;;;;;;;4.57;2.92;;;7.00;99.90;;;;;;5076884;28;20198;-88
2023/09/24 05:46:20;;;;;;;9.80;3.90;;;7.10;99.90;;;;;;5077180;28;20233;-88
2023/09/24 05:48:45;;;;;;;5.13;3.80;;;7.10;99.90;;;;;;5082375;28;20632;-88
2023/09/24 05:51:11;;;;;;;6.20;3.53;;;7.10;99.90;;;;;;5064533;28;20172;-88
2023/09/24 05:53:37;;;;;;;6.83;4.07;;;7.20;99.90;;;;;;5060631;28;20214;-88
2023/09/24 05:56:03;;;;;;;11.93;4.03;;;7.20;99.90;;;;;;5095001;28;20231;-88
2023/09/24 05:58:29;;;;;;;11.63;3.97;;;7.20;99.90;;;;;;5077035;28;20180;-87
2023/09/24 06:00:55;;;;;;;9.13;3.77;;;7.30;99.90;;;;;;5060093;28;20188;-88
2023/09/24 06:03:22;;;;;;;7.80;3.35;;;7.30;99.90;;;;;;5095015;28;20501;-88
2023/09/24 06:05:47;;;;;;;5.75;3.30;;;7.30;99.90;;;;;;5094933;28;20223;-87
2023/09/24 06:08:13;;;;;;;11.40;4.17;;;7.40;99.90;;;;;;5095418;28;20563;-88
2023/09/24 06:10:43;;;;;;;7.40;4.05;;;7.40;99.90;;;;;;5095316;28;20176;-88
2023/09/24 06:13:11;;;;;;;4.82;3.80;;;7.50;99.90;;;;;;5076870;28;20545;-88
2023/09/24 06:15:36;;;;;;;13.18;4.22;;;7.60;99.90;;;;;;5044275;28;20188;-87
2023/09/24 06:18:02;;;;;;;6.30;3.80;;;7.60;99.90;;;;;;5060437;28;20183;-87
2023/09/24 06:20:28;;;;;;;4.70;3.33;;;7.70;99.90;;;;;;5095162;28;20168;-87
2023/09/24 06:22:54;;;;;;;10.67;4.30;;;7.80;99.90;;;;;;5094711;28;20231;-87
2023/09/24 06:25:20;;;;;;;7.47;3.47;;;7.90;99.90;;;;;;5076399;28;20211;-87
2023/09/24 06:27:45;;;;;;;8.40;3.92;;;8.00;99.90;;;;;;5076331;28;20208;-87
2023/09/24 06:30:11;;;;;;;5.70;4.80;;;8.00;99.90;;;;;;5055974;28;20234;-88
2023/09/24 06:32:37;;;;;;;5.17;4.10;;;8.10;99.90;;;;;;5056622;28;20266;-87
2023/09/24 06:35:04;;;;;;;8.57;4.63;;;8.20;99.90;;;;;;5073873;28;20185;-88
2023/09/24 06:37:30;;;;;;;10.20;4.15;;;8.30;99.90;;;;;;5074073;28;20204;-85
2023/09/24 06:39:56;;;;;;;10.93;4.05;;;8.50;99.90;;;;;;5074127;28;20183;-85
2023/09/24 06:42:22;;;;;;;9.52;4.20;;;8.50;99.90;;;;;;5075337;28;20188;-84
2023/09/24 06:44:49;;;;;;;6.37;4.70;;;8.70;99.90;;;;;;5075902;28;20219;-85
2023/09/24 06:47:15;;;;;;;12.15;4.47;;;8.80;99.90;;;;;;5059649;28;20181;-85
2023/09/24 06:49:41;;;;;;;9.30;4.30;;;8.90;99.90;;;;;;5059778;28;20278;-85
2023/09/24 06:52:06;;;;;;;8.13;4.10;;;9.00;99.90;;;;;;5059614;28;20270;-85
2023/09/24 06:54:32;;;;;;;6.73;4.43;;;9.10;99.90;;;;;;5059485;28;20183;-85
2023/09/24 06:56:58;;;;;;;7.60;4.47;;;9.20;99.90;;;;;;5075602;28;20207;-85
2023/09/24 06:59:24;;;;;;;11.30;5.83;;;9.30;99.90;;;;;;5076866;28;20190;-85
2023/09/24 07:01:50;;;;;;;9.43;4.50;;;9.40;99.90;;;;;;5097446;28;20195;-87
2023/09/24 07:04:16;;;;;;;10.50;5.37;;;9.50;99.90;;;;;;5080403;28;20216;-86
2023/09/24 07:06:42;;;;;;;5.70;3.93;;;9.60;99.90;;;;;;5076783;28;20183;-87
2023/09/24 07:09:08;;;;;;;6.60;4.93;;;9.80;99.90;;;;;;5059696;28;20189;-86
2023/09/24 07:11:37;;;;;;;8.30;4.80;;;9.90;99.90;;;;;;5076441;28;20556;-86
2023/09/24 07:14:06;;;;;;;8.60;4.72;;;10.00;99.90;;;;;;5060029;28;20188;-87
2023/09/24 07:16:32;;;;;;;7.05;4.70;;;10.20;99.90;;;;;;5056924;28;20269;-86
2023/09/24 07:18:59;;;;;;;6.57;4.57;;;10.30;99.90;;;;;;5074158;28;20176;-85
2023/09/24 07:21:28;;;;;;;9.25;4.60;;;10.40;99.90;;;;;;5039196;28;20185;-86
2023/09/24 07:23:56;;;;;;;4.80;4.40;;;10.60;99.90;;;;;;5073661;28;20220;-84
2023/09/24 07:26:25;;;;;;;11.88;5.38;;;10.70;99.90;;;;;;5075296;28;20200;-86
2023/09/24 07:28:52;;;;;;;7.65;5.00;;;10.80;99.90;;;;;;5061015;28;20545;-87
2023/09/24 07:31:21;;;;;;;11.55;5.10;;;10.90;99.90;;;;;;5095141;28;20180;-86
2023/09/24 07:33:51;;;;;;;7.57;4.18;;;11.00;99.90;;;;;;5076870;28;20184;-86
2023/09/24 07:36:17;;;;;;;6.05;4.55;;;11.20;99.90;;;;;;5094146;28;20184;-88
2023/09/24 07:38:43;;;;;;;8.03;4.30;;;11.20;99.90;;;;;;5059687;28;20237;-86
2023/09/24 07:41:09;;;;;;;7.20;4.27;;;11.20;99.90;;;;;;5075832;28;20263;-87
2023/09/24 07:43:43;;;;;;;7.22;4.40;;;11.40;99.90;;;;;;5066833;28;20419;-86
2023/09/24 07:46:14;;;;;;;8.30;4.30;;;11.50;99.90;;;;;;5040116;28;20193;-87
2023/09/24 07:48:44;;;;;;;7.97;3.42;;;11.60;99.90;;;;;;5056627;28;20173;-86
2023/09/24 07:51:11;;;;;;;8.10;3.72;;;11.70;99.90;;;;;;5073445;28;20177;-85
2023/09/24 07:53:36;;;;;;;8.00;3.90;;;11.90;99.90;;;;;;5056740;28;20177;-87
2023/09/24 07:56:07;;;;;;;8.87;3.93;;;11.90;99.90;;;;;;5039149;28;20434;-87
2023/09/24 07:58:33;;;;;;;5.78;3.45;;;12.10;99.90;;;;;;5056152;28;20180;-88
2023/09/24 08:01:02;;;;;;;4.43;3.38;;;12.20;99.90;;;;;;5073593;28;20246;-87
2023/09/24 08:03:31;;;;;;;4.85;3.35;;;12.20;99.90;;;;;;5074707;28;20177;-87
2023/09/24 08:05:57;;;;;;;4.47;3.63;;;12.40;99.90;;;;;;5055958;28;20239;-87
2023/09/24 08:08:24;;;;;;;8.07;3.70;;;12.50;99.90;;;;;;5057688;28;20422;-87
2023/09/24 08:10:52;;;;;;;5.53;3.47;;;12.60;99.90;;;;;;5078056;28;20181;-88
2023/09/24 08:13:19;;;;;;;7.63;3.03;;;12.60;99.90;;;;;;5060731;28;20414;-87
2023/09/24 08:15:46;;;;;;;4.43;2.87;;;12.70;99.90;;;;;;5059341;28;20509;-86
2023/09/24 08:18:12;;;;;;;4.30;2.50;;;12.80;99.90;;;;;;5042114;28;20419;-87
2023/09/24 08:20:39;;;;;;;4.97;2.07;;;12.70;99.90;;;;;;5043232;28;20797;-87
2023/09/24 08:23:05;;;;;;;4.40;2.30;;;12.90;99.90;;;;;;5062589;28;20466;-85
2023/09/24 08:25:31;;;;;;;5.23;3.13;;;13.00;99.90;;;;;;5062974;28;20468;-87
2023/09/24 08:27:57;;;;;;;4.00;2.10;;;13.20;99.90;;;;;;5079441;28;20413;-86
2023/09/24 08:30:23;;;;;;;3.80;2.17;;;13.30;99.90;;;;;;5059972;28;20419;-90
2023/09/24 08:32:49;;;;;;;3.20;2.23;;;13.50;99.90;;;;;;5043645;28;20431;-90
2023/09/24 08:35:15;;;;;;;2.23;1.60;;;13.60;99.90;;;;;;5078117;28;20821;-90
2023/09/24 08:37:40;;;;;;;12.40;2.60;;;13.60;99.90;;;;;;5060951;28;20190;-92
2023/09/24 08:40:09;;;;;;;7.33;2.80;;;13.80;99.90;;;;;;5061720;28;20222;-91
2023/09/24 08:42:36;;;;;;;5.03;1.83;;;13.90;99.90;;;;;;5061638;28;20203;-91
2023/09/24 08:45:12;;;;;;;4.80;1.80;;;14.30;99.90;;;;;;5044380;28;20524;-90
2023/09/24 08:47:39;;;;;;;4.50;2.07;;;14.50;99.90;;;;;;5063195;28;20784;-92
2023/09/24 08:50:06;;;;;;;4.90;1.70;;;15.10;99.90;;;;;;5063569;28;20454;-90
2023/09/24 08:52:37;;;;;;;3.60;1.50;;;15.60;99.90;;;;;;5081987;28;20403;-91
2023/09/24 08:55:12;;;;;;;2.10;1.23;;;15.90;99.90;;;;;;5061362;28;20423;-90
2023/09/24 08:57:43;;;;;;;3.27;1.17;;;16.20;99.90;;;;;;5065268;28;20468;-91
2023/09/24 09:00:11;;;;;;;2.37;1.00;;;16.30;99.90;;;;;;5062976;28;20422;-92
2023/09/24 09:02:41;;;;;;;3.30;1.30;;;16.60;99.90;;;;;;5083914;28;20434;-91
2023/09/24 09:05:11;;;;;;;2.90;1.17;;;16.90;99.90;;;;;;5083945;28;20458;-90
2023/09/24 09:07:39;;;;;;;4.10;1.50;;;16.90;99.90;;;;;;5087945;28;20428;-90
2023/09/24 09:10:05;;;;;;;3.00;1.17;;;17.10;99.90;;;;;;5093339;28;20410;-91
2023/09/24 09:12:31;;;;;;;5.60;1.10;;;17.40;99.90;;;;;;5066574;28;20389;-90
2023/09/24 09:14:57;;;;;;;2.70;1.40;;;17.50;99.90;;;;;;5065031;28;20923;-91
2023/09/24 09:17:24;;;;;;;4.73;1.50;;;17.20;99.90;;;;;;5063520;28;20188;-91
2023/09/24 09:19:56;;;;;;;3.10;1.10;;;17.50;99.90;;;;;;5062769;28;20423;-91
2023/09/24 09:22:23;;;;;;;2.20;1.30;;;17.80;99.90;;;;;;5064174;28;20441;-92
2023/09/24 09:25:01;;;;;;;5.10;1.30;;;18.50;99.90;;;;;;5097907;28;20428;-89
2023/09/24 09:27:46;;;;;;;2.13;0.90;;;19.00;99.90;;;;;;5080001;28;20417;-88
2023/09/24 09:30:15;;;;;;;6.70;1.73;;;19.00;99.90;;;;;;5080279;28;20441;-91
2023/09/24 09:32:47;;;;;;;2.03;1.07;;;19.20;99.90;;;;;;5099079;28;20828;-88
2023/09/24 09:35:15;;;;;;;4.20;1.20;;;19.80;99.90;;;;;;5067583;28;20763;-92
2023/09/24 09:37:46;;;;;;;2.60;0.90;;;20.30;99.90;;;;;;5077424;28;20419;-95
2023/09/24 09:40:14;;;;;;;4.73;1.43;;;20.00;99.90;;;;;;5077299;28;20419;-95
2023/09/24 09:42:41;;;;;;;6.37;1.40;;;20.30;99.90;;;;;;5078438;28;20419;-95
2023/09/24 09:45:09;;;;;;;3.57;1.53;;;20.20;99.90;;;;;;5077104;28;20450;-94
2023/09/24 09:47:58;;;;;;;3.43;1.30;;;19.80;99.90;;;;;;5078146;28;20521;-93
2023/09/24 09:50:25;;;;;;;2.63;0.90;;;20.40;99.90;;;;;;5081710;28;20450;-94
2023/09/24 09:52:54;;;;;;;4.13;1.10;;;20.70;99.90;;;;;;5070320;28;20443;-94
2023/09/24 09:55:21;;;;;;;2.17;1.10;;;20.30;99.90;;;;;;5098148;28;20410;-94
2023/09/24 09:57:47;;;;;;;2.80;0.77;;;20.10;99.90;;;;;;5101828;28;20410;-93
2023/09/24 10:00:17;;;;;;;2.90;1.10;;;20.30;99.90;;;;;;5098373;28;20402;-91
2023/09/24 10:02:43;;;;;;;5.43;1.13;;;20.80;99.90;;;;;;5081742;28;20426;-90
2023/09/24 10:05:15;;;;;;;1.97;0.90;;;21.40;99.90;;;;;;5085468;28;20488;-92
2023/09/24 10:07:40;;;;;;;2.50;0.90;;;21.60;99.90;;;;;;5080469;28;20464;-91
2023/09/24 10:10:32;;;;;;;1.50;0.97;;;21.80;99.90;;;;;;5081075;28;20410;-88
2023/09/24 10:13:03;;;;;;;1.37;0.73;;;22.10;99.90;;;;;;5088302;28;20223;-88
2023/09/24 10:15:33;;;;;;;3.00;1.07;;;21.80;99.90;;;;;;5087531;28;20828;-90
2023/09/24 10:18:11;;;;;;;2.87;0.87;;;22.30;99.90;;;;;;5059343;28;20411;-94
2023/09/24 10:20:49;;;;;;;2.63;0.90;;;22.20;99.90;;;;;;5059123;28;20450;-90
2023/09/24 10:23:29;;;;;;;1.70;1.10;;;21.80;99.90;;;;;;5075163;28;20466;-88
2023/09/24 10:26:04;;;;;;;2.43;1.10;;;21.60;99.90;;;;;;5076603;28;20470;-87
2023/09/24 10:28:50;;;;;;;2.60;1.10;;;22.40;99.90;;;;;;5075938;28;20994;-87
2023/09/24 10:31:22;;;;;;;6.73;1.10;;;22.10;99.90;;;;;;5080313;28;20417;-87
2023/09/24 10:33:58;;;;;;;1.33;0.90;;;22.60;99.90;;;;;;5090922;28;20413;-88
2023/09/24 10:36:29;;;;;;;1.57;1.07;;;22.60;99.90;;;;;;5061048;28;20884;-88
2023/09/24 10:39:05;;;;;;;2.13;1.20;;;22.40;99.90;;;;;;5081698;28;20942;-89
2023/09/24 10:41:32;;;;;;;1.70;1.20;;;22.10;99.90;;;;;;5080773;28;20426;-87
2023/09/24 10:44:26;;;;;;;1.93;1.23;;;22.60;99.90;;;;;;5082021;28;20465;-89
2023/09/24 10:46:52;;;;;;;2.10;1.13;;;22.90;99.90;;;;;;5076989;28;20421;-92
2023/09/24 10:49:21;;;;;;;2.23;1.00;;;23.00;99.90;;;;;;5095203;28;20891;-86
2023/09/24 10:51:47;;;;;;;1.30;1.07;;;22.80;99.90;;;;;;5060742;28;20422;-87
2023/09/24 10:54:16;;;;;;;2.00;1.27;;;22.90;99.90;;;;;;5095553;28;20414;-90
2023/09/24 10:56:49;;;;;;;4.80;1.30;;;22.90;99.90;;;;;;5095103;28;20767;-88
2023/09/24 10:59:15;;;;;;;2.07;1.10;;;22.90;99.90;;;;;;5095187;28;20430;-89
2023/09/24 11:01:42;;;;;;;1.70;1.10;;;23.20;99.90;;;;;;5077188;28;20418;-87
2023/09/24 11:04:09;;;;;;;1.57;0.90;;;22.80;99.90;;;;;;5076570;28;20449;-87
2023/09/24 11:06:34;;;;;;;3.10;1.20;;;23.30;99.90;;;;;;5095837;28;20440;-88
2023/09/24 11:09:17;;;;;;;2.70;1.23;;;23.40;99.90;;;;;;5061684;28;20510;-87
2023/09/24 11:11:43;;;;;;;6.57;1.43;;;22.90;99.90;;;;;;5096399;28;20498;-86
2023/09/24 11:14:27;;;;;;;2.30;1.10;;;23.30;99.90;;;;;;5060616;28;20516;-87
2023/09/24 11:16:55;;;;;;;1.97;1.10;;;22.90;99.90;;;;;;5074898;28;21056;-87
2023/09/24 11:19:43;;;;;;;2.30;0.90;;;23.30;99.90;;;;;;5076090;28;20422;-87
2023/09/24 11:22:21;;;;;;;2.20;1.27;;;23.80;99.90;;;;;;5095842;28;20454;-89
2023/09/24 11:25:11;;;;;;;3.77;1.27;;;23.70;99.90;;;;;;5106661;28;20449;-88
2023/09/24 11:27:49;;;;;;;1.93;1.20;;;24.00;99.90;;;;;;5095658;28;20427;-88
2023/09/24 11:30:15;;;;;;;2.30;1.10;;;24.00;99.90;;;;;;5076882;28;20501;-87
2023/09/24 11:32:42;;;;;;;1.43;0.90;;;24.20;99.90;;;;;;5059608;28;20418;-87
2023/09/24 11:35:16;;;;;;;1.43;1.00;;;24.30;99.90;;;;;;5060059;28;20437;-89
2023/09/24 11:37:48;;;;;;;1.77;0.83;;;24.70;99.90;;;;;;5076676;28;20428;-87
2023/09/24 11:40:29;;;;;;;1.87;0.90;;;24.50;99.90;;;;;;5060436;28;20929;-89
2023/09/24 11:43:05;;;;;;;1.73;0.90;;;24.50;99.90;;;;;;5061017;28;21702;-93
2023/09/24 11:45:35;;;;;;;1.50;1.17;;;24.70;99.90;;;;;;5081188;28;20869;-88
2023/09/24 11:48:01;;;;;;;4.33;1.40;;;25.00;99.90;;;;;;5081667;28;20426;-91
2023/09/24 11:50:27;;;;;;;1.80;1.00;;;25.40;99.90;;;;;;5064099;28;20948;-91
2023/09/24 11:52:52;;;;;;;3.83;1.10;;;25.20;99.90;;;;;;5098932;28;20655;-90
2023/09/24 11:55:18;;;;;;;3.90;1.23;;;25.40;99.90;;;;;;5081056;28;20188;-92
2023/09/24 11:57:43;;;;;;;1.53;1.10;;;25.90;99.90;;;;;;5081736;28;20184;-91
2023/09/24 12:00:10;;;;;;;1.37;0.97;;;26.00;99.90;;;;;;5064533;28;20224;-91
2023/09/24 12:02:35;;;;;;;1.90;1.00;;;25.80;99.90;;;;;;5045479;28;20185;-92
2023/09/24 12:05:01;;;;;;;2.30;1.00;;;25.90;99.90;;;;;;5060766;28;20511;-89
2023/09/24 12:07:30;;;;;;;3.07;1.77;;;26.20;99.90;;;;;;5060696;28;20188;-90
2023/09/24 12:09:55;;;;;;;2.10;1.00;;;26.30;99.50;;;;;;5045510;28;20183;-90
2023/09/24 12:12:21;;;;;;;5.30;1.30;;;26.20;99.20;;;;;;5061817;28;20411;-93
2023/09/24 12:14:46;;;;;;;1.67;1.20;;;26.40;97.20;;;;;;5044989;28;20667;-89
2023/09/24 12:17:12;;;;;;;1.70;0.97;;;26.50;95.80;;;;;;5063837;28;20192;-92
2023/09/24 12:19:37;;;;;;;1.53;0.90;;;26.60;97.10;;;;;;5098608;28;20261;-91
2023/09/24 12:22:03;;;;;;;1.93;1.03;;;26.80;97.90;;;;;;5079456;28;20235;-86
2023/09/24 12:24:29;;;;;;;1.87;0.90;;;26.40;93.10;;;;;;5062579;28;20219;-87
2023/09/24 12:26:54;;;;;;;2.43;1.10;;;26.40;94.10;;;;;;5063415;28;20621;-86
2023/09/24 12:29:20;;;;;;;2.70;0.80;;;26.30;93.30;;;;;;5063279;28;20591;-90
2023/09/24 12:31:45;;;;;;;2.23;0.90;;;26.20;94.00;;;;;;5063866;28;20172;-89
2023/09/24 12:34:11;;;;;;;1.43;0.80;;;26.20;94.00;;;;;;5079453;28;20176;-90
2023/09/24 12:36:36;;;;;;;1.70;0.97;;;26.40;95.90;;;;;;5047578;28;20559;-92
2023/09/24 12:39:02;;;;;;;2.00;1.27;;;26.80;95.40;;;;;;5045570;28;20177;-92
2023/09/24 12:41:28;;;;;;;1.87;1.20;;;27.10;94.00;;;;;;5079697;28;20595;-90
2023/09/24 12:43:55;;;;;;;2.30;1.10;;;27.40;91.30;;;;;;5077726;28;20454;-92
2023/09/24 12:46:20;;;;;;;2.13;1.20;;;27.40;92.30;;;;;;5078360;28;20544;-86
2023/09/24 12:48:46;;;;;;;3.20;1.20;;;27.60;93.50;;;;;;5084746;28;20504;-93
2023/09/24 12:51:11;;;;;;;1.93;1.00;;;27.80;93.40;;;;;;5076568;28;20334;-93
2023/09/24 12:53:40;;;;;;;1.10;0.80;;;28.10;92.30;;;;;;5076502;28;20181;-92